sensor_id;sensor_type;location;lat;lon;timestamp;P1;durP1;ratioP1;P2;durP2;ratioP2
22184;SDS011;11258;52.516;13.318;2023-04-08T00:00:35;14.13;;;9.20;;
22184;SDS011;11258;52.516;13.318;2023-04-08T00:03:01;16.80;;;10.33;;
22184;SDS011;11258;52.516;13.318;2023-04-08T00:05:27;19.93;;;10.57;;
22184;SDS011;11258;52.516;13.318;2023-04-08T00:07:52;16.67;;;9.70;;
22184;SDS011;11258;52.516;13.318;2023-04-08T00:10:18;16.27;;;10.43;;
22184;SDS011;11258;52.516;13.318;2023-04-08T00:12:46;17.03;;;11.03;;
22184;SDS011;11258;52.516;13.318;2023-04-08T00:15:12;17.83;;;11.00;;
22184;SDS011;11258;52.516;13.318;2023-04-08T00:17:38;18.50;;;11.67;;
22184;SDS011;11258;52.516;13.318;2023-04-08T00:20:05;20.13;;;12.50;;
22184;SDS011;11258;52.516;13.318;2023-04-08T00:22:31;20.53;;;13.67;;
22184;SDS011;11258;52.516;13.318;2023-04-08T00:24:57;21.83;;;13.30;;
22184;SDS011;11258;52.516;13.318;2023-04-08T00:27:23;26.20;;;14.57;;
22184;SDS011;11258;52.516;13.318;2023-04-08T00:29:49;21.37;;;13.40;;
22184;SDS011;11258;52.516;13.318;2023-04-08T00:32:15;24.93;;;13.77;;
22184;SDS011;11258;52.516;13.318;2023-04-08T00:34:41;25.43;;;14.20;;
22184;SDS011;11258;52.516;13.318;2023-04-08T00:37:07;22.40;;;14.13;;
22184;SDS011;11258;52.516;13.318;2023-04-08T00:39:33;26.07;;;15.77;;
22184;SDS011;11258;52.516;13.318;2023-04-08T00:41:58;23.80;;;14.23;;
22184;SDS011;11258;52.516;13.318;2023-04-08T00:44:26;27.20;;;15.03;;
22184;SDS011;11258;52.516;13.318;2023-04-08T00:46:52;27.93;;;15.77;;
22184;SDS011;11258;52.516;13.318;2023-04-08T00:49:18;32.03;;;16.27;;
22184;SDS011;11258;52.516;13.318;2023-04-08T00:51:44;28.90;;;15.40;;
22184;SDS011;11258;52.516;13.318;2023-04-08T00:54:09;30.67;;;16.77;;
22184;SDS011;11258;52.516;13.318;2023-04-08T00:56:35;30.43;;;17.03;;
22184;SDS011;11258;52.516;13.318;2023-04-08T00:59:01;32.83;;;17.23;;
22184;SDS011;11258;52.516;13.318;2023-04-08T01:04:06;32.50;;;17.93;;
22184;SDS011;11258;52.516;13.318;2023-04-08T01:06:58;34.67;;;17.63;;
22184;SDS011;11258;52.516;13.318;2023-04-08T01:09:45;34.77;;;17.87;;
22184;SDS011;11258;52.516;13.318;2023-04-08T01:12:17;33.57;;;17.83;;
22184;SDS011;11258;52.516;13.318;2023-04-08T01:14:51;34.10;;;17.57;;
22184;SDS011;11258;52.516;13.318;2023-04-08T01:17:19;32.63;;;18.67;;
22184;SDS011;11258;52.516;13.318;2023-04-08T01:19:46;33.77;;;18.13;;
22184;SDS011;11258;52.516;13.318;2023-04-08T01:25:05;34.33;;;17.80;;
22184;SDS011;11258;52.516;13.318;2023-04-08T01:27:36;35.47;;;18.70;;
22184;SDS011;11258;52.516;13.318;2023-04-08T01:30:03;35.73;;;18.67;;
22184;SDS011;11258;52.516;13.318;2023-04-08T01:32:30;32.53;;;18.20;;
22184;SDS011;11258;52.516;13.318;2023-04-08T01:34:58;36.17;;;18.63;;
22184;SDS011;11258;52.516;13.318;2023-04-08T01:37:24;38.70;;;19.37;;
22184;SDS011;11258;52.516;13.318;2023-04-08T01:39:53;39.43;;;19.37;;
22184;SDS011;11258;52.516;13.318;2023-04-08T01:42:21;40.90;;;20.20;;
22184;SDS011;11258;52.516;13.318;2023-04-08T01:44:48;37.77;;;20.17;;
22184;SDS011;11258;52.516;13.318;2023-04-08T01:47:16;33.17;;;19.00;;
22184;SDS011;11258;52.516;13.318;2023-04-08T01:49:43;37.27;;;20.23;;
22184;SDS011;11258;52.516;13.318;2023-04-08T01:52:10;34.20;;;18.83;;
22184;SDS011;11258;52.516;13.318;2023-04-08T01:54:36;34.93;;;18.83;;
22184;SDS011;11258;52.516;13.318;2023-04-08T01:57:03;37.57;;;19.00;;
22184;SDS011;11258;52.516;13.318;2023-04-08T01:59:33;36.30;;;20.87;;
22184;SDS011;11258;52.516;13.318;2023-04-08T02:02:03;36.97;;;20.50;;
22184;SDS011;11258;52.516;13.318;2023-04-08T02:04:30;39.07;;;19.30;;
22184;SDS011;11258;52.516;13.318;2023-04-08T02:06:58;37.47;;;19.23;;
22184;SDS011;11258;52.516;13.318;2023-04-08T02:09:25;40.77;;;20.80;;
22184;SDS011;11258;52.516;13.318;2023-04-08T02:11:51;43.50;;;20.90;;
22184;SDS011;11258;52.516;13.318;2023-04-08T02:14:17;44.50;;;22.10;;
22184;SDS011;11258;52.516;13.318;2023-04-08T02:16:45;37.60;;;20.27;;
22184;SDS011;11258;52.516;13.318;2023-04-08T02:19:45;35.50;;;19.90;;
22184;SDS011;11258;52.516;13.318;2023-04-08T02:22:25;36.63;;;18.27;;
22184;SDS011;11258;52.516;13.318;2023-04-08T02:25:00;37.17;;;19.57;;
22184;SDS011;11258;52.516;13.318;2023-04-08T02:27:33;41.47;;;22.07;;
22184;SDS011;11258;52.516;13.318;2023-04-08T02:29:59;40.00;;;21.50;;
22184;SDS011;11258;52.516;13.318;2023-04-08T02:32:28;42.43;;;21.47;;
22184;SDS011;11258;52.516;13.318;2023-04-08T02:34:56;37.63;;;19.83;;
22184;SDS011;11258;52.516;13.318;2023-04-08T02:37:24;39.93;;;20.97;;
22184;SDS011;11258;52.516;13.318;2023-04-08T02:39:52;40.70;;;20.73;;
22184;SDS011;11258;52.516;13.318;2023-04-08T02:42:17;42.27;;;19.97;;
22184;SDS011;11258;52.516;13.318;2023-04-08T02:44:43;42.93;;;20.77;;
22184;SDS011;11258;52.516;13.318;2023-04-08T02:47:09;39.70;;;20.63;;
22184;SDS011;11258;52.516;13.318;2023-04-08T02:49:34;41.07;;;19.90;;
22184;SDS011;11258;52.516;13.318;2023-04-08T02:52:00;38.27;;;20.07;;
22184;SDS011;11258;52.516;13.318;2023-04-08T02:54:26;43.73;;;21.97;;
22184;SDS011;11258;52.516;13.318;2023-04-08T02:56:51;41.63;;;20.50;;
22184;SDS011;11258;52.516;13.318;2023-04-08T02:59:17;39.33;;;20.03;;
22184;SDS011;11258;52.516;13.318;2023-04-08T03:01:42;40.73;;;20.77;;
22184;SDS011;11258;52.516;13.318;2023-04-08T03:04:08;43.60;;;20.63;;
22184;SDS011;11258;52.516;13.318;2023-04-08T03:06:34;39.53;;;19.53;;
22184;SDS011;11258;52.516;13.318;2023-04-08T03:08:59;41.63;;;19.47;;
22184;SDS011;11258;52.516;13.318;2023-04-08T03:11:25;39.73;;;20.23;;
22184;SDS011;11258;52.516;13.318;2023-04-08T03:13:51;42.87;;;19.37;;
22184;SDS011;11258;52.516;13.318;2023-04-08T03:16:16;46.63;;;20.40;;
22184;SDS011;11258;52.516;13.318;2023-04-08T03:18:42;35.80;;;19.27;;
22184;SDS011;11258;52.516;13.318;2023-04-08T03:21:08;44.00;;;20.77;;
22184;SDS011;11258;52.516;13.318;2023-04-08T03:23:33;40.97;;;21.03;;
22184;SDS011;11258;52.516;13.318;2023-04-08T03:25:59;39.33;;;19.83;;
22184;SDS011;11258;52.516;13.318;2023-04-08T03:28:25;43.80;;;20.27;;
22184;SDS011;11258;52.516;13.318;2023-04-08T03:30:50;34.93;;;20.10;;
22184;SDS011;11258;52.516;13.318;2023-04-08T03:33:16;46.03;;;21.53;;
22184;SDS011;11258;52.516;13.318;2023-04-08T03:35:42;50.40;;;22.27;;
22184;SDS011;11258;52.516;13.318;2023-04-08T03:38:07;44.03;;;21.37;;
22184;SDS011;11258;52.516;13.318;2023-04-08T03:40:33;47.60;;;20.77;;
22184;SDS011;11258;52.516;13.318;2023-04-08T03:42:59;43.27;;;21.67;;
22184;SDS011;11258;52.516;13.318;2023-04-08T03:45:25;45.97;;;20.87;;
22184;SDS011;11258;52.516;13.318;2023-04-08T03:47:50;36.63;;;19.30;;
22184;SDS011;11258;52.516;13.318;2023-04-08T03:50:16;51.87;;;21.63;;
22184;SDS011;11258;52.516;13.318;2023-04-08T03:52:41;46.93;;;20.73;;
22184;SDS011;11258;52.516;13.318;2023-04-08T03:55:07;42.67;;;22.23;;
22184;SDS011;11258;52.516;13.318;2023-04-08T03:57:33;41.47;;;20.77;;
22184;SDS011;11258;52.516;13.318;2023-04-08T03:59:59;53.77;;;27.73;;
22184;SDS011;11258;52.516;13.318;2023-04-08T04:02:24;46.10;;;22.33;;
22184;SDS011;11258;52.516;13.318;2023-04-08T04:04:50;45.77;;;22.43;;
22184;SDS011;11258;52.516;13.318;2023-04-08T04:07:16;44.20;;;22.13;;
22184;SDS011;11258;52.516;13.318;2023-04-08T04:09:41;45.07;;;21.30;;
22184;SDS011;11258;52.516;13.318;2023-04-08T04:12:07;46.43;;;23.33;;
22184;SDS011;11258;52.516;13.318;2023-04-08T04:14:32;47.23;;;22.87;;
22184;SDS011;11258;52.516;13.318;2023-04-08T04:16:58;44.00;;;22.07;;
22184;SDS011;11258;52.516;13.318;2023-04-08T04:19:23;46.87;;;23.20;;
22184;SDS011;11258;52.516;13.318;2023-04-08T04:21:49;43.10;;;21.33;;
22184;SDS011;11258;52.516;13.318;2023-04-08T04:24:15;45.70;;;21.87;;
22184;SDS011;11258;52.516;13.318;2023-04-08T04:26:40;41.90;;;20.00;;
22184;SDS011;11258;52.516;13.318;2023-04-08T04:29:06;48.60;;;22.30;;
22184;SDS011;11258;52.516;13.318;2023-04-08T04:31:32;46.30;;;22.43;;
22184;SDS011;11258;52.516;13.318;2023-04-08T04:33:57;53.83;;;22.87;;
22184;SDS011;11258;52.516;13.318;2023-04-08T04:36:23;49.93;;;23.17;;
22184;SDS011;11258;52.516;13.318;2023-04-08T04:38:49;44.10;;;22.30;;
22184;SDS011;11258;52.516;13.318;2023-04-08T04:41:15;50.87;;;23.03;;
22184;SDS011;11258;52.516;13.318;2023-04-08T04:43:41;53.17;;;24.13;;
22184;SDS011;11258;52.516;13.318;2023-04-08T04:46:06;50.70;;;25.27;;
22184;SDS011;11258;52.516;13.318;2023-04-08T04:48:33;52.77;;;24.50;;
22184;SDS011;11258;52.516;13.318;2023-04-08T04:50:59;53.70;;;24.30;;
22184;SDS011;11258;52.516;13.318;2023-04-08T04:53:27;47.07;;;23.00;;
22184;SDS011;11258;52.516;13.318;2023-04-08T04:55:53;47.43;;;22.87;;
22184;SDS011;11258;52.516;13.318;2023-04-08T04:58:19;42.33;;;22.30;;
22184;SDS011;11258;52.516;13.318;2023-04-08T05:00:45;46.10;;;23.70;;
22184;SDS011;11258;52.516;13.318;2023-04-08T05:03:11;47.90;;;22.87;;
22184;SDS011;11258;52.516;13.318;2023-04-08T05:05:37;55.90;;;24.50;;
22184;SDS011;11258;52.516;13.318;2023-04-08T05:08:03;42.70;;;23.10;;
22184;SDS011;11258;52.516;13.318;2023-04-08T05:10:29;44.00;;;22.67;;
22184;SDS011;11258;52.516;13.318;2023-04-08T05:12:55;47.37;;;22.87;;
22184;SDS011;11258;52.516;13.318;2023-04-08T05:15:20;49.97;;;22.50;;
22184;SDS011;11258;52.516;13.318;2023-04-08T05:17:46;48.00;;;23.17;;
22184;SDS011;11258;52.516;13.318;2023-04-08T05:20:12;47.50;;;23.00;;
22184;SDS011;11258;52.516;13.318;2023-04-08T05:22:37;47.57;;;23.47;;
22184;SDS011;11258;52.516;13.318;2023-04-08T05:25:03;43.90;;;21.43;;
22184;SDS011;11258;52.516;13.318;2023-04-08T05:27:30;50.67;;;22.37;;
22184;SDS011;11258;52.516;13.318;2023-04-08T05:29:55;45.80;;;22.70;;
22184;SDS011;11258;52.516;13.318;2023-04-08T05:32:22;50.20;;;24.57;;
22184;SDS011;11258;52.516;13.318;2023-04-08T05:34:47;49.57;;;23.30;;
22184;SDS011;11258;52.516;13.318;2023-04-08T05:37:13;53.97;;;23.97;;
22184;SDS011;11258;52.516;13.318;2023-04-08T05:39:39;47.83;;;23.07;;
22184;SDS011;11258;52.516;13.318;2023-04-08T05:42:04;53.30;;;25.50;;
22184;SDS011;11258;52.516;13.318;2023-04-08T05:44:30;45.30;;;23.87;;
22184;SDS011;11258;52.516;13.318;2023-04-08T05:46:56;55.50;;;25.63;;
22184;SDS011;11258;52.516;13.318;2023-04-08T05:49:22;49.37;;;24.77;;
22184;SDS011;11258;52.516;13.318;2023-04-08T05:51:48;49.20;;;24.47;;
22184;SDS011;11258;52.516;13.318;2023-04-08T05:54:13;50.53;;;23.30;;
22184;SDS011;11258;52.516;13.318;2023-04-08T05:56:39;50.17;;;24.60;;
22184;SDS011;11258;52.516;13.318;2023-04-08T05:59:04;50.27;;;24.07;;
22184;SDS011;11258;52.516;13.318;2023-04-08T06:01:30;51.93;;;24.23;;
22184;SDS011;11258;52.516;13.318;2023-04-08T06:03:56;55.70;;;26.90;;
22184;SDS011;11258;52.516;13.318;2023-04-08T06:06:21;50.70;;;24.93;;
22184;SDS011;11258;52.516;13.318;2023-04-08T06:08:47;49.23;;;24.63;;
22184;SDS011;11258;52.516;13.318;2023-04-08T06:11:13;52.53;;;24.80;;
22184;SDS011;11258;52.516;13.318;2023-04-08T06:13:39;52.37;;;26.27;;
22184;SDS011;11258;52.516;13.318;2023-04-08T06:16:14;49.43;;;24.50;;
22184;SDS011;11258;52.516;13.318;2023-04-08T06:18:44;52.73;;;25.93;;
22184;SDS011;11258;52.516;13.318;2023-04-08T06:21:09;52.03;;;24.37;;
22184;SDS011;11258;52.516;13.318;2023-04-08T06:23:35;51.50;;;25.40;;
22184;SDS011;11258;52.516;13.318;2023-04-08T06:26:01;51.83;;;27.00;;
22184;SDS011;11258;52.516;13.318;2023-04-08T06:28:30;54.80;;;25.10;;
22184;SDS011;11258;52.516;13.318;2023-04-08T06:30:56;52.23;;;24.57;;
22184;SDS011;11258;52.516;13.318;2023-04-08T06:33:22;50.13;;;26.40;;
22184;SDS011;11258;52.516;13.318;2023-04-08T06:35:48;47.80;;;24.43;;
22184;SDS011;11258;52.516;13.318;2023-04-08T06:38:14;48.33;;;24.80;;
22184;SDS011;11258;52.516;13.318;2023-04-08T06:40:39;51.53;;;25.50;;
22184;SDS011;11258;52.516;13.318;2023-04-08T06:43:05;50.87;;;25.60;;
22184;SDS011;11258;52.516;13.318;2023-04-08T06:45:31;48.77;;;24.43;;
22184;SDS011;11258;52.516;13.318;2023-04-08T06:47:58;50.53;;;24.00;;
22184;SDS011;11258;52.516;13.318;2023-04-08T06:50:23;50.53;;;24.90;;
22184;SDS011;11258;52.516;13.318;2023-04-08T06:52:49;45.77;;;23.50;;
22184;SDS011;11258;52.516;13.318;2023-04-08T06:55:15;52.07;;;25.80;;
22184;SDS011;11258;52.516;13.318;2023-04-08T06:57:41;53.00;;;26.43;;
22184;SDS011;11258;52.516;13.318;2023-04-08T07:00:06;50.67;;;26.23;;
22184;SDS011;11258;52.516;13.318;2023-04-08T07:02:33;50.20;;;24.20;;
22184;SDS011;11258;52.516;13.318;2023-04-08T07:04:59;45.37;;;23.30;;
22184;SDS011;11258;52.516;13.318;2023-04-08T07:07:24;45.33;;;23.27;;
22184;SDS011;11258;52.516;13.318;2023-04-08T07:09:50;47.73;;;24.13;;
22184;SDS011;11258;52.516;13.318;2023-04-08T07:12:16;53.70;;;25.93;;
22184;SDS011;11258;52.516;13.318;2023-04-08T07:14:42;48.10;;;22.80;;
22184;SDS011;11258;52.516;13.318;2023-04-08T07:17:07;43.43;;;23.03;;
22184;SDS011;11258;52.516;13.318;2023-04-08T07:19:33;46.47;;;24.47;;
22184;SDS011;11258;52.516;13.318;2023-04-08T07:21:59;49.27;;;24.40;;
22184;SDS011;11258;52.516;13.318;2023-04-08T07:24:24;45.70;;;23.83;;
22184;SDS011;11258;52.516;13.318;2023-04-08T07:26:50;44.67;;;24.13;;
22184;SDS011;11258;52.516;13.318;2023-04-08T07:29:16;44.07;;;22.67;;
22184;SDS011;11258;52.516;13.318;2023-04-08T07:31:42;45.43;;;23.80;;
22184;SDS011;11258;52.516;13.318;2023-04-08T07:34:08;40.37;;;23.00;;
22184;SDS011;11258;52.516;13.318;2023-04-08T07:36:34;42.97;;;22.40;;
22184;SDS011;11258;52.516;13.318;2023-04-08T07:39:00;44.87;;;23.90;;
22184;SDS011;11258;52.516;13.318;2023-04-08T07:41:26;41.90;;;22.77;;
22184;SDS011;11258;52.516;13.318;2023-04-08T07:43:52;40.43;;;22.37;;
22184;SDS011;11258;52.516;13.318;2023-04-08T07:46:18;50.80;;;24.07;;
22184;SDS011;11258;52.516;13.318;2023-04-08T07:48:44;42.57;;;23.40;;
22184;SDS011;11258;52.516;13.318;2023-04-08T07:51:10;46.20;;;23.57;;
22184;SDS011;11258;52.516;13.318;2023-04-08T07:53:36;42.73;;;23.67;;
22184;SDS011;11258;52.516;13.318;2023-04-08T07:56:02;40.37;;;22.47;;
22184;SDS011;11258;52.516;13.318;2023-04-08T07:58:34;41.43;;;23.80;;
22184;SDS011;11258;52.516;13.318;2023-04-08T08:01:00;42.37;;;23.90;;
22184;SDS011;11258;52.516;13.318;2023-04-08T08:03:26;41.60;;;22.87;;
22184;SDS011;11258;52.516;13.318;2023-04-08T08:05:51;38.97;;;19.73;;
22184;SDS011;11258;52.516;13.318;2023-04-08T08:08:17;46.37;;;22.23;;
22184;SDS011;11258;52.516;13.318;2023-04-08T08:10:42;49.03;;;23.77;;
22184;SDS011;11258;52.516;13.318;2023-04-08T08:13:08;44.27;;;23.33;;
22184;SDS011;11258;52.516;13.318;2023-04-08T08:15:34;48.77;;;23.37;;
22184;SDS011;11258;52.516;13.318;2023-04-08T08:17:59;49.07;;;23.93;;
22184;SDS011;11258;52.516;13.318;2023-04-08T08:20:25;47.77;;;23.57;;
22184;SDS011;11258;52.516;13.318;2023-04-08T08:22:51;45.43;;;23.23;;
22184;SDS011;11258;52.516;13.318;2023-04-08T08:25:16;42.80;;;22.00;;
22184;SDS011;11258;52.516;13.318;2023-04-08T08:27:42;45.50;;;23.27;;
22184;SDS011;11258;52.516;13.318;2023-04-08T08:30:09;42.33;;;21.87;;
22184;SDS011;11258;52.516;13.318;2023-04-08T08:32:35;42.27;;;23.37;;
22184;SDS011;11258;52.516;13.318;2023-04-08T08:35:01;43.40;;;23.30;;
22184;SDS011;11258;52.516;13.318;2023-04-08T08:37:27;41.23;;;22.67;;
22184;SDS011;11258;52.516;13.318;2023-04-08T08:39:52;44.07;;;22.47;;
22184;SDS011;11258;52.516;13.318;2023-04-08T08:42:22;42.27;;;22.20;;
22184;SDS011;11258;52.516;13.318;2023-04-08T08:44:49;42.93;;;22.70;;
22184;SDS011;11258;52.516;13.318;2023-04-08T08:47:15;41.70;;;20.73;;
22184;SDS011;11258;52.516;13.318;2023-04-08T08:49:41;41.03;;;22.80;;
22184;SDS011;11258;52.516;13.318;2023-04-08T08:52:07;37.43;;;20.60;;
22184;SDS011;11258;52.516;13.318;2023-04-08T08:54:33;40.63;;;22.73;;
22184;SDS011;11258;52.516;13.318;2023-04-08T08:56:59;40.17;;;22.30;;
22184;SDS011;11258;52.516;13.318;2023-04-08T08:59:25;40.70;;;21.73;;
22184;SDS011;11258;52.516;13.318;2023-04-08T09:01:51;35.00;;;18.73;;
22184;SDS011;11258;52.516;13.318;2023-04-08T09:04:17;39.10;;;21.27;;
22184;SDS011;11258;52.516;13.318;2023-04-08T09:06:45;34.17;;;20.10;;
22184;SDS011;11258;52.516;13.318;2023-04-08T09:09:14;39.27;;;19.83;;
22184;SDS011;11258;52.516;13.318;2023-04-08T09:11:43;36.80;;;20.47;;
22184;SDS011;11258;52.516;13.318;2023-04-08T09:14:20;34.90;;;19.77;;
22184;SDS011;11258;52.516;13.318;2023-04-08T09:16:50;34.73;;;20.60;;
22184;SDS011;11258;52.516;13.318;2023-04-08T09:19:16;36.57;;;20.60;;
22184;SDS011;11258;52.516;13.318;2023-04-08T09:21:42;38.03;;;21.07;;
22184;SDS011;11258;52.516;13.318;2023-04-08T09:24:09;37.17;;;20.67;;
22184;SDS011;11258;52.516;13.318;2023-04-08T09:26:51;37.00;;;20.03;;
22184;SDS011;11258;52.516;13.318;2023-04-08T09:29:17;37.27;;;21.27;;
22184;SDS011;11258;52.516;13.318;2023-04-08T09:31:47;34.80;;;19.20;;
22184;SDS011;11258;52.516;13.318;2023-04-08T09:34:18;35.87;;;20.87;;
22184;SDS011;11258;52.516;13.318;2023-04-08T09:36:45;37.67;;;21.10;;
22184;SDS011;11258;52.516;13.318;2023-04-08T09:39:13;34.47;;;18.50;;
22184;SDS011;11258;52.516;13.318;2023-04-08T09:41:39;38.27;;;20.37;;
22184;SDS011;11258;52.516;13.318;2023-04-08T09:44:07;32.50;;;20.30;;
22184;SDS011;11258;52.516;13.318;2023-04-08T09:57:21;38.33;;;20.87;;
22184;SDS011;11258;52.516;13.318;2023-04-08T10:00:07;39.63;;;20.77;;
22184;SDS011;11258;52.516;13.318;2023-04-08T10:02:46;35.67;;;20.33;;
22184;SDS011;11258;52.516;13.318;2023-04-08T10:05:20;35.40;;;19.47;;
22184;SDS011;11258;52.516;13.318;2023-04-08T10:07:47;40.67;;;21.43;;
22184;SDS011;11258;52.516;13.318;2023-04-08T10:10:14;37.50;;;21.03;;
22184;SDS011;11258;52.516;13.318;2023-04-08T10:12:40;40.63;;;20.30;;
22184;SDS011;11258;52.516;13.318;2023-04-08T10:17:52;34.23;;;19.87;;
22184;SDS011;11258;52.516;13.318;2023-04-08T10:23:00;34.37;;;20.33;;
22184;SDS011;11258;52.516;13.318;2023-04-08T10:27:55;35.20;;;20.23;;
22184;SDS011;11258;52.516;13.318;2023-04-08T10:32:56;31.70;;;18.93;;
22184;SDS011;11258;52.516;13.318;2023-04-08T10:35:33;32.67;;;19.47;;
22184;SDS011;11258;52.516;13.318;2023-04-08T10:38:06;31.63;;;18.63;;
22184;SDS011;11258;52.516;13.318;2023-04-08T10:40:36;28.83;;;18.00;;
22184;SDS011;11258;52.516;13.318;2023-04-08T10:43:06;31.97;;;18.57;;
22184;SDS011;11258;52.516;13.318;2023-04-08T10:45:36;30.87;;;18.83;;
22184;SDS011;11258;52.516;13.318;2023-04-08T10:48:19;32.47;;;19.27;;
22184;SDS011;11258;52.516;13.318;2023-04-08T10:50:56;29.87;;;18.00;;
22184;SDS011;11258;52.516;13.318;2023-04-08T10:53:30;27.17;;;17.10;;
22184;SDS011;11258;52.516;13.318;2023-04-08T10:56:13;24.90;;;16.50;;
22184;SDS011;11258;52.516;13.318;2023-04-08T10:58:50;27.47;;;16.27;;
22184;SDS011;11258;52.516;13.318;2023-04-08T11:01:16;30.07;;;18.67;;
22184;SDS011;11258;52.516;13.318;2023-04-08T11:03:43;30.63;;;19.07;;
22184;SDS011;11258;52.516;13.318;2023-04-08T11:06:09;27.10;;;16.37;;
22184;SDS011;11258;52.516;13.318;2023-04-08T11:08:36;30.23;;;17.30;;
22184;SDS011;11258;52.516;13.318;2023-04-08T11:11:02;31.40;;;17.13;;
22184;SDS011;11258;52.516;13.318;2023-04-08T11:13:32;28.83;;;17.80;;
22184;SDS011;11258;52.516;13.318;2023-04-08T11:16:00;26.40;;;16.57;;
22184;SDS011;11258;52.516;13.318;2023-04-08T11:18:26;25.93;;;16.33;;
22184;SDS011;11258;52.516;13.318;2023-04-08T11:20:53;28.23;;;16.57;;
22184;SDS011;11258;52.516;13.318;2023-04-08T11:23:19;30.83;;;17.47;;
22184;SDS011;11258;52.516;13.318;2023-04-08T11:25:46;24.50;;;16.30;;
22184;SDS011;11258;52.516;13.318;2023-04-08T11:28:12;24.43;;;15.87;;
22184;SDS011;11258;52.516;13.318;2023-04-08T11:30:39;27.50;;;16.73;;
22184;SDS011;11258;52.516;13.318;2023-04-08T11:33:08;29.57;;;14.77;;
22184;SDS011;11258;52.516;13.318;2023-04-08T11:35:38;22.00;;;14.47;;
22184;SDS011;11258;52.516;13.318;2023-04-08T11:38:05;22.87;;;13.53;;
22184;SDS011;11258;52.516;13.318;2023-04-08T11:40:32;21.03;;;13.53;;
22184;SDS011;11258;52.516;13.318;2023-04-08T11:42:58;23.60;;;13.83;;
22184;SDS011;11258;52.516;13.318;2023-04-08T11:45:24;23.00;;;15.00;;
22184;SDS011;11258;52.516;13.318;2023-04-08T11:47:50;22.70;;;15.77;;
22184;SDS011;11258;52.516;13.318;2023-04-08T11:50:25;26.10;;;16.20;;
22184;SDS011;11258;52.516;13.318;2023-04-08T11:52:53;24.43;;;14.67;;
22184;SDS011;11258;52.516;13.318;2023-04-08T11:57:52;19.37;;;12.47;;
22184;SDS011;11258;52.516;13.318;2023-04-08T12:00:18;21.90;;;14.43;;
22184;SDS011;11258;52.516;13.318;2023-04-08T12:02:45;23.67;;;14.67;;
22184;SDS011;11258;52.516;13.318;2023-04-08T12:05:14;23.77;;;15.63;;
22184;SDS011;11258;52.516;13.318;2023-04-08T12:07:40;24.10;;;15.30;;
22184;SDS011;11258;52.516;13.318;2023-04-08T12:10:07;23.07;;;15.07;;
22184;SDS011;11258;52.516;13.318;2023-04-08T12:12:33;24.27;;;15.60;;
22184;SDS011;11258;52.516;13.318;2023-04-08T12:14:59;23.43;;;14.70;;
22184;SDS011;11258;52.516;13.318;2023-04-08T12:17:25;21.93;;;15.37;;
22184;SDS011;11258;52.516;13.318;2023-04-08T12:19:50;25.93;;;16.20;;
22184;SDS011;11258;52.516;13.318;2023-04-08T12:22:16;27.90;;;16.80;;
22184;SDS011;11258;52.516;13.318;2023-04-08T12:24:42;26.97;;;16.80;;
22184;SDS011;11258;52.516;13.318;2023-04-08T12:27:07;25.47;;;16.03;;
22184;SDS011;11258;52.516;13.318;2023-04-08T12:29:33;25.80;;;15.53;;
22184;SDS011;11258;52.516;13.318;2023-04-08T12:31:59;24.53;;;14.57;;
22184;SDS011;11258;52.516;13.318;2023-04-08T12:34:26;23.30;;;14.67;;
22184;SDS011;11258;52.516;13.318;2023-04-08T12:36:51;25.83;;;15.50;;
22184;SDS011;11258;52.516;13.318;2023-04-08T12:39:17;24.40;;;14.63;;
22184;SDS011;11258;52.516;13.318;2023-04-08T12:41:43;24.23;;;15.57;;
22184;SDS011;11258;52.516;13.318;2023-04-08T12:44:08;20.73;;;12.77;;
22184;SDS011;11258;52.516;13.318;2023-04-08T12:46:34;21.30;;;12.83;;
22184;SDS011;11258;52.516;13.318;2023-04-08T12:49:00;20.70;;;13.37;;
22184;SDS011;11258;52.516;13.318;2023-04-08T12:51:26;19.90;;;12.73;;
22184;SDS011;11258;52.516;13.318;2023-04-08T12:53:51;18.13;;;12.40;;
22184;SDS011;11258;52.516;13.318;2023-04-08T12:56:17;16.20;;;11.80;;
22184;SDS011;11258;52.516;13.318;2023-04-08T12:58:42;16.57;;;11.53;;
22184;SDS011;11258;52.516;13.318;2023-04-08T13:01:08;17.10;;;12.03;;
22184;SDS011;11258;52.516;13.318;2023-04-08T13:03:34;13.80;;;10.77;;
22184;SDS011;11258;52.516;13.318;2023-04-08T13:06:00;13.27;;;9.53;;
22184;SDS011;11258;52.516;13.318;2023-04-08T13:08:26;14.00;;;10.20;;
22184;SDS011;11258;52.516;13.318;2023-04-08T13:10:52;14.63;;;10.87;;
22184;SDS011;11258;52.516;13.318;2023-04-08T13:13:18;23.40;;;15.50;;
22184;SDS011;11258;52.516;13.318;2023-04-08T13:15:44;26.70;;;14.60;;
22184;SDS011;11258;52.516;13.318;2023-04-08T13:18:10;20.15;;;13.07;;
22184;SDS011;11258;52.516;13.318;2023-04-08T13:20:36;21.10;;;13.90;;
22184;SDS011;11258;52.516;13.318;2023-04-08T13:23:01;19.03;;;11.87;;
22184;SDS011;11258;52.516;13.318;2023-04-08T13:25:27;18.73;;;13.13;;
22184;SDS011;11258;52.516;13.318;2023-04-08T13:27:52;22.03;;;15.23;;
22184;SDS011;11258;52.516;13.318;2023-04-08T13:30:18;21.77;;;13.60;;
22184;SDS011;11258;52.516;13.318;2023-04-08T13:32:44;19.80;;;14.10;;
22184;SDS011;11258;52.516;13.318;2023-04-08T13:35:09;22.40;;;15.53;;
22184;SDS011;11258;52.516;13.318;2023-04-08T13:37:35;21.93;;;14.87;;
22184;SDS011;11258;52.516;13.318;2023-04-08T13:40:01;22.33;;;14.53;;
22184;SDS011;11258;52.516;13.318;2023-04-08T13:42:27;14.93;;;10.90;;
22184;SDS011;11258;52.516;13.318;2023-04-08T13:44:55;15.53;;;10.27;;
22184;SDS011;11258;52.516;13.318;2023-04-08T13:47:21;16.20;;;10.07;;
22184;SDS011;11258;52.516;13.318;2023-04-08T13:49:47;14.63;;;11.07;;
22184;SDS011;11258;52.516;13.318;2023-04-08T13:52:12;14.80;;;11.00;;
22184;SDS011;11258;52.516;13.318;2023-04-08T13:54:38;14.93;;;10.93;;
22184;SDS011;11258;52.516;13.318;2023-04-08T13:57:04;15.00;;;11.80;;
22184;SDS011;11258;52.516;13.318;2023-04-08T13:59:30;12.87;;;10.00;;
22184;SDS011;11258;52.516;13.318;2023-04-08T14:01:55;12.93;;;9.10;;
22184;SDS011;11258;52.516;13.318;2023-04-08T14:04:21;13.93;;;9.40;;
22184;SDS011;11258;52.516;13.318;2023-04-08T14:06:47;13.90;;;10.13;;
22184;SDS011;11258;52.516;13.318;2023-04-08T14:09:15;14.57;;;10.23;;
22184;SDS011;11258;52.516;13.318;2023-04-08T14:11:41;14.70;;;9.93;;
22184;SDS011;11258;52.516;13.318;2023-04-08T14:14:07;12.63;;;9.87;;
22184;SDS011;11258;52.516;13.318;2023-04-08T14:16:33;15.53;;;11.20;;
22184;SDS011;11258;52.516;13.318;2023-04-08T14:18:59;13.37;;;10.23;;
22184;SDS011;11258;52.516;13.318;2023-04-08T14:21:25;13.17;;;10.33;;
22184;SDS011;11258;52.516;13.318;2023-04-08T14:23:51;16.13;;;11.70;;
22184;SDS011;11258;52.516;13.318;2023-04-08T14:26:17;15.63;;;11.57;;
22184;SDS011;11258;52.516;13.318;2023-04-08T14:28:42;15.70;;;10.83;;
22184;SDS011;11258;52.516;13.318;2023-04-08T14:31:08;15.97;;;12.37;;
22184;SDS011;11258;52.516;13.318;2023-04-08T14:33:34;16.80;;;11.57;;
22184;SDS011;11258;52.516;13.318;2023-04-08T14:36:00;15.93;;;11.33;;